Stamford Pioneer — VRJD7 — position and weather

sailwx.info

Track history (hours):
 
Tides and Currents Weather Stations Pressure Air Temp Water Temp Dewpoint Dewpoint Depression Visibility Wind Speed Wind Dir Waves Ship Positions

Stamford Pioneer

Last reported at 2017-Jan-20 22:13 UTC. Time now 2017-Jan-22 05:55 UTC.
Position S 35°05' E 174°34'.

Length 180 m; draft 10.3 m.

Type: Cargo ship. MMSI: 477462800.

Date/timePositionNaut miles runAvg speedWind from/ knotsBaromVisibWave heightAir tempDewpointWater temp
2017-Jan-20 22:13S 35°05' E 174°34'6 9.6
2017-Jan-20 21:34S 35°10' E 174°39'  
2017-Jan-17 23:08S 36°05' E 174°45'1710.4
2017-Jan-17 21:32S 36°16' E 175°00'1010.0
2017-Jan-17 20:33S 36°21' E 175°11'  
2017-Jan-14 16:13S 37°34' E 176°17'710.0
2017-Jan-14 15:31S 37°38' E 176°10'2 1.6
2017-Jan-14 14:33S 37°39' E 176°11'0 0.0
2017-Jan-14 13:33S 37°39' E 176°11'0 0.0
2017-Jan-14 12:32S 37°39' E 176°11'0 0.0
2017-Jan-14 11:33S 37°39' E 176°11'0 0.0
2017-Jan-14 10:33S 37°39' E 176°11'0 0.0
2017-Jan-14 09:32S 37°39' E 176°11'0 0.0
2017-Jan-14 08:32S 37°39' E 176°11'0 0.0
2017-Jan-14 07:32S 37°39' E 176°11'0 0.0
2017-Jan-14 06:33S 37°39' E 176°11'0 0.0
2017-Jan-14 05:32S 37°39' E 176°11'0 0.0
2017-Jan-14 04:33S 37°39' E 176°11'0 0.0
2017-Jan-14 03:33S 37°39' E 176°11'0 0.0
2017-Jan-13 23:30S 37°39' E 176°11'0 0.0
2017-Jan-13 22:32S 37°39' E 176°11'0 0.0
2017-Jan-13 21:32S 37°39' E 176°11'0 0.0
2017-Jan-13 20:33S 37°39' E 176°11'0 0.0
2017-Jan-13 19:32S 37°39' E 176°11'0 0.0
2017-Jan-13 18:33S 37°39' E 176°11'0 0.0
2017-Jan-13 17:32S 37°39' E 176°11'0 0.0
2017-Jan-13 16:32S 37°39' E 176°11'0 0.0
2017-Jan-13 15:32S 37°39' E 176°11'0 0.0
2017-Jan-13 14:32S 37°39' E 176°11'1 0.9
2017-Jan-13 13:33S 37°38' E 176°10'4 4.2
2017-Jan-13 12:33S 37°37' E 176°16'0 0.0
2017-Jan-13 11:33S 37°37' E 176°16'0 0.0
2017-Jan-13 10:33S 37°37' E 176°16'0 0.0
2017-Jan-13 09:33S 37°37' E 176°16'0 0.0
2017-Jan-13 08:31S 37°37' E 176°16'0 0.0
2017-Jan-13 07:30S 37°37' E 176°16'0 0.0
2017-Jan-13 06:31S 37°37' E 176°16'0 0.0
2017-Jan-13 05:30S 37°37' E 176°16'2 2.0
2017-Jan-13 04:33S 37°36' E 176°15'16110.7
2017-Jan-12 13:33S 35°14' E 174°42'  
Track history (hours):
 
Tides and Currents Weather Stations Pressure Air Temp Water Temp Dewpoint Dewpoint Depression Visibility Wind Speed Wind Dir Waves Ship Positions

Stamford Pioneer

Last reported at 2017-Jan-20 22:13 UTC. Time now 2017-Jan-22 05:55 UTC.
Position S 35°05' E 174°34'.

Length 180 m; draft 10.3 m.

Type: Cargo ship. MMSI: 477462800.

Date/timePositionNaut miles runAvg speedWind from/ knotsBaromVisibWave heightAir tempDewpointWater temp
2017-Jan-20 22:13S 35°05' E 174°34'6 9.6
2017-Jan-20 21:34S 35°10' E 174°39'  
2017-Jan-17 23:08S 36°05' E 174°45'1710.4
2017-Jan-17 21:32S 36°16' E 175°00'1010.0
2017-Jan-17 20:33S 36°21' E 175°11'  
2017-Jan-14 16:13S 37°34' E 176°17'710.0
2017-Jan-14 15:31S 37°38' E 176°10'2 1.6
2017-Jan-14 14:33S 37°39' E 176°11'0 0.0
2017-Jan-14 13:33S 37°39' E 176°11'0 0.0
2017-Jan-14 12:32S 37°39' E 176°11'0 0.0
2017-Jan-14 11:33S 37°39' E 176°11'0 0.0
2017-Jan-14 10:33S 37°39' E 176°11'0 0.0
2017-Jan-14 09:32S 37°39' E 176°11'0 0.0
2017-Jan-14 08:32S 37°39' E 176°11'0 0.0
2017-Jan-14 07:32S 37°39' E 176°11'0 0.0
2017-Jan-14 06:33S 37°39' E 176°11'0 0.0
2017-Jan-14 05:32S 37°39' E 176°11'0 0.0
2017-Jan-14 04:33S 37°39' E 176°11'0 0.0
2017-Jan-14 03:33S 37°39' E 176°11'0 0.0
2017-Jan-13 23:30S 37°39' E 176°11'0 0.0
2017-Jan-13 22:32S 37°39' E 176°11'0 0.0
2017-Jan-13 21:32S 37°39' E 176°11'0 0.0
2017-Jan-13 20:33S 37°39' E 176°11'0 0.0
2017-Jan-13 19:32S 37°39' E 176°11'0 0.0
2017-Jan-13 18:33S 37°39' E 176°11'0 0.0
2017-Jan-13 17:32S 37°39' E 176°11'0 0.0
2017-Jan-13 16:32S 37°39' E 176°11'0 0.0
2017-Jan-13 15:32S 37°39' E 176°11'0 0.0
2017-Jan-13 14:32S 37°39' E 176°11'1 0.9
2017-Jan-13 13:33S 37°38' E 176°10'4 4.2
2017-Jan-13 12:33S 37°37' E 176°16'0 0.0
2017-Jan-13 11:33S 37°37' E 176°16'0 0.0
2017-Jan-13 10:33S 37°37' E 176°16'0 0.0
2017-Jan-13 09:33S 37°37' E 176°16'0 0.0
2017-Jan-13 08:31S 37°37' E 176°16'0 0.0
2017-Jan-13 07:30S 37°37' E 176°16'0 0.0
2017-Jan-13 06:31S 37°37' E 176°16'0 0.0
2017-Jan-13 05:30S 37°37' E 176°16'2 2.0
2017-Jan-13 04:33S 37°36' E 176°15'16110.7
2017-Jan-12 13:33S 35°14' E 174°42'  

Dump ship's entire track history